Latest Coastal Weather Observations for Newcastle Nobbys

IDN60701

Issued at 7:22 am EDT Friday 6 March 2015 (issued every 10 minutes, with the page automatically refreshed every 10 minutes)

About coastal observations | Map of coastal stations | Coastal observations for NSW | Marine services | Other Formats
Station Details ID: 061055 Name: NEWCASTLE NOBBYS SIGNAL STATION AWS Lat: -32.92 Lon: 151.80 Height: 33.0 m
Data from the previous 72 hours. | See also: Recent months at Newcastle Nobbys
Date/Time
EDT
Temp

°C
Wind Pressure Rain
since 9am
mm
Weather Cloud Vis
km
Sea
Height
m
Swell
Dir
 
Speed
knots
Gust
knots
hPa Trend Height
m
Period
s
Dir
06/07:00am 17.8 NW 6 7 - - 0.0 - - - - - - -
06/06:30am 18.0 NW 6 8 - - 0.0 - - - - - - -
06/06:00am 18.1 NW 6 8 - - 0.0 - - - - - - -
06/05:30am 18.4 NW 5 7 - - 0.0 - - - - - - -
06/05:00am 18.7 NW 4 6 - - 0.0 - - - - - - -
06/04:30am 19.1 NW 4 5 - - 0.0 - - - - - - -
06/04:00am 19.5 NNW 4 6 - - 0.0 - - - - - - -
06/03:30am 19.7 N 5 6 - - 0.0 - - - - - - -
06/03:00am 20.1 NE 2 4 - - 0.0 - - - - - - -
06/02:30am 20.1 ESE 3 4 - - 0.0 - - - - - - -
06/02:00am 20.3 ESE 5 7 - - 0.0 - - - - - - -
06/01:30am 20.4 ESE 5 7 - - 0.0 - - - - - - -
06/01:00am 20.4 SE 5 7 - - 0.0 - - - - - - -
06/12:30am 20.4 SE 8 10 - - 0.0 - - - - - - -
06/12:00am 20.5 SSE 9 13 - - 0.0 - - - - - - -
 
Date/Time
EDT
Temp

°C
Wind Pressure Rain
since 9am
mm
Weather Cloud Vis
km
Sea
Height
m
Swell
Dir
 
Speed
knots
Gust
knots
hPa Trend Height
m
Period
s
Dir
05/11:30pm 20.6 SSE 11 14 - - 0.0 - - - - - - -
05/11:00pm 20.6 SSE 12 15 - - 0.0 - - - - - - -
05/10:30pm 20.6 SSE 14 18 - - 0.0 - - - - - - -
05/10:00pm 20.9 SSE 13 16 - - 0.0 - - - - - - -
05/09:30pm 20.9 SSE 13 17 - - 0.0 - - - - - - -
05/09:00pm 20.9 SSE 14 16 - - 0.0 - - - - - - -
05/08:30pm 20.7 SSE 15 19 - - 0.0 - - - - - - -
05/08:00pm 20.8 SSE 17 20 - - 0.0 - - - - - - -
05/07:30pm 20.8 SSE 19 23 - - 0.0 - - - - - - -
05/07:00pm 20.7 SSE 21 25 - - 0.0 - - - - - - -
05/06:30pm 20.8 SSE 23 29 - - 0.0 - - - - - - -
05/06:00pm 20.8 SSE 25 29 - - 0.0 - - - - - - -
05/05:30pm 21.0 SSE 27 32 - - 0.0 - - - - - - -
05/05:00pm 21.7 SSE 26 30 - - 0.0 - - - - - - -
05/04:30pm 21.7 S 25 30 - - 0.0 - - - - - - -
05/04:00pm 22.1 SSE 27 31 - - 0.0 - - - - - - -
05/03:30pm 22.6 SSE 28 34 - - 0.0 - - - - - - -
05/03:00pm 23.9 S 24 31 - - 0.0 - - - - - - -
05/02:30pm 24.7 S 17 21 - - 0.0 - - - - - - -
05/02:00pm 24.9 SSE 15 18 - - 0.0 - - - - - - -
05/01:30pm 29.3 SW 10 15 - - 0.0 - - - - - - -
05/01:00pm 29.4 WSW 13 20 - - 0.0 - - - - - - -
05/12:30pm 29.0 W 13 20 - - 0.0 - - - - - - -
05/12:00pm 28.6 W 15 19 - - 0.0 - - - - - - -
05/11:30am 28.9 W 10 15 - - 0.0 - - - - - - -
05/11:00am 27.9 W 14 20 - - 0.0 - - - - - - -
05/10:30am 27.4 WNW 15 19 - - 0.0 - - - - - - -
05/10:00am 27.1 WNW 14 19 - - 0.0 - - - - - - -
05/09:30am 26.6 WNW 15 21 - - 0.0 - - - - - - -
05/09:00am 26.1 WNW 12 15 - - 0.0 - - - - - - -
05/08:30am 25.1 W 14 18 - - 0.0 - - - - - - -
05/08:00am 24.0 WNW 13 18 - - 0.0 - - - - - - -
05/07:30am 22.1 WNW 8 10 - - 0.0 - - - - - - -
05/07:00am 21.8 NW 10 12 - - 0.0 - - - - - - -
05/06:30am 21.7 NW 8 11 - - 0.0 - - - - - - -
05/06:00am 21.6 NW 8 10 - - 0.0 - - - - - - -
05/05:30am 21.7 NNW 4 5 - - 0.0 - - - - - - -
05/05:00am 21.9 NW 2 3 - - 0.0 - - - - - - -
05/04:30am 22.0 WNW 2 4 - - 0.0 - - - - - - -
05/04:00am 22.3 WNW 5 6 - - 0.0 - - - - - - -
05/03:30am 22.5 WSW 4 6 - - 0.0 - - - - - - -
05/03:00am 22.5 SW 6 9 - - 0.0 - - - - - - -
05/02:30am 22.6 SSW 7 9 - - 0.0 - - - - - - -
05/02:00am 22.6 SSW 7 10 - - 0.0 - - - - - - -
05/01:30am 22.6 SSW 5 7 - - 0.0 - - - - - - -
05/01:00am 22.7 SSW 5 8 - - 0.0 - - - - - - -
05/12:30am 22.8 S 3 3 - - 0.0 - - - - - - -
05/12:00am 22.9 S 4 4 - - 0.0 - - - - - - -
 
Date/Time
EDT
Temp

°C
Wind Pressure Rain
since 9am
mm
Weather Cloud Vis
km
Sea
Height
m
Swell
Dir
 
Speed
knots
Gust
knots
hPa Trend Height
m
Period
s
Dir
04/11:30pm 23.1 SSW 6 7 - - 0.0 - - - - - - -
04/11:00pm 23.3 S 4 5 - - 0.0 - - - - - - -
04/10:30pm 23.4 SSE 3 5 - - 0.0 - - - - - - -
04/10:00pm 23.5 SE 2 3 - - 0.0 - - - - - - -
04/09:30pm 23.7 ENE 3 4 - - 0.0 - - - - - - -
04/09:00pm 23.9 ENE 3 4 - - 0.0 - - - - - - -
04/08:30pm 23.9 ENE 4 5 - - 0.0 - - - - - - -
04/08:00pm 24.1 NE 3 5 - - 0.0 - - - - - - -
04/07:30pm 24.2 ENE 6 9 - - 0.0 - - - - - - -
04/07:00pm 24.1 ENE 6 7 - - 0.0 - - - - - - -
04/06:30pm 24.3 E 6 9 - - 0.0 - - - - - - -
04/06:00pm 24.3 E 7 8 - - 0.0 - - - - - - -
04/05:30pm 24.6 ESE 7 9 - - 0.0 - - - - - - -
04/05:00pm 24.5 ESE 8 9 - - 0.0 - - - - - - -
04/04:30pm 24.1 ESE 9 10 - - 0.0 - - - - - - -
04/04:00pm 24.4 SE 11 12 - - 0.0 - - - - - - -
04/03:30pm 24.6 ESE 11 12 - - 0.0 - - - - - - -
04/03:00pm 24.8 ESE 12 14 - - 0.0 - - - - - - -
04/02:30pm 25.1 ESE 11 12 - - 0.0 - - - - - - -
04/02:00pm 25.0 SE 10 11 - - 0.0 - - - - - - -
04/01:30pm 24.6 SE 10 11 - - 0.0 - - - - - - -
04/01:00pm 25.9 ESE 8 10 - - 0.0 - - - - - - -
04/12:30pm 28.2 ENE 6 7 - - 0.0 - - - - - - -
04/12:00pm 28.3 NE 4 6 - - 0.0 - - - - - - -
04/11:30am 25.8 N 5 7 - - 0.0 - - - - - - -
04/11:00am 24.2 NNW 7 9 - - 0.0 - - - - - - -
04/10:30am 23.6 NNW 6 8 - - 0.0 - - - - - - -
04/10:00am 23.3 N 4 6 - - 0.0 - - - - - - -
04/09:30am 22.3 N 5 7 - - 0.0 - - - - - - -
04/09:00am 22.1 NNE 5 6 - - 0.0 - - - - - - -
04/08:30am 22.1 NNE 3 4 - - 0.0 - - - - - - -
04/08:00am 21.9 NNE 5 6 - - 0.0 - - - - - - -
04/07:30am 22.1 NE 3 5 - - 0.0 - - - - - - -
04/07:00am 22.1 NE 3 6 - - 0.0 - - - - - - -
04/06:30am 22.1 NE 4 5 - - 0.0 - - - - - - -
04/06:00am 22.4 NE 3 5 - - 0.0 - - - - - - -
04/05:30am 22.4 ENE 3 4 - - 0.0 - - - - - - -
04/05:00am 22.4 ENE 5 7 - - 0.0 - - - - - - -
04/04:30am 22.5 E 5 6 - - 0.0 - - - - - - -
04/04:00am 22.5 E 6 6 - - 0.0 - - - - - - -
04/03:30am 22.5 ESE 5 6 - - 0.0 - - - - - - -
04/03:00am 22.5 SSE 3 4 - - 0.0 - - - - - - -
04/02:30am 22.6 ESE 4 5 - - 0.0 - - - - - - -
04/02:00am 22.5 E 3 4 - - 0.0 - - - - - - -
04/01:30am 22.5 E 4 5 - - 0.0 - - - - - - -
04/01:00am 22.6 ENE 5 6 - - 0.0 - - - - - - -
04/12:30am 22.7 ENE 5 7 - - 0.0 - - - - - - -
04/12:00am 22.7 NE 5 8 - - 0.0 - - - - - - -
 
Date/Time
EDT
Temp

°C
Wind Pressure Rain
since 9am
mm
Weather Cloud Vis
km
Sea
Height
m
Swell
Dir
 
Speed
knots
Gust
knots
hPa Trend Height
m
Period
s
Dir
03/11:30pm 22.9 NE 6 8 - - 0.0 - - - - - - -
03/11:00pm 22.9 NE 8 10 - - 0.0 - - - - - - -
03/10:30pm 22.9 NE 10 13 - - 0.0 - - - - - - -
03/10:00pm 23.0 NE 10 13 - - 0.0 - - - - - - -
03/09:30pm 23.1 NE 11 14 - - 0.0 - - - - - - -
03/09:00pm 23.2 NE 10 12 - - 0.0 - - - - - - -
03/08:30pm 23.2 NE 11 15 - - 0.0 - - - - - - -
03/08:00pm 23.2 ENE 11 15 - - 0.0 - - - - - - -
03/07:30pm 23.1 ENE 15 19 - - 0.0 - - - - - - -
03/07:00pm 23.3 ENE 16 21 - - 0.0 - - - - - - -
03/06:30pm 23.2 ENE 16 21 - - 0.0 - - - - - - -
03/06:00pm 23.6 ENE 15 18 - - 0.0 - - - - - - -
03/05:30pm 23.7 ENE 15 18 - - 0.0 - - - - - - -
03/05:00pm 23.9 ENE 16 19 - - 0.0 - - - - - - -
03/04:30pm 24.0 E 16 19 - - 0.0 - - - - - - -
03/04:00pm 24.0 E 16 19 - - 0.0 - - - - - - -
03/03:30pm 24.0 E 15 18 - - 0.0 - - - - - - -
03/03:00pm 24.0 E 14 17 - - 0.0 - - - - - - -
03/02:30pm 23.9 E 15 17 - - 0.0 - - - - - - -
03/02:00pm 24.0 E 13 16 - - 0.0 - - - - - - -
03/01:30pm 24.3 E 12 13 - - 0.0 - - - - - - -
03/01:00pm 24.6 E 10 11 - - 0.0 - - - - - - -
03/12:30pm 25.0 E 8 9 - - 0.0 - - - - - - -
03/12:00pm 25.2 E 6 7 - - 0.0 - - - - - - -
03/11:30am 24.8 NNE 5 7 - - 0.0 - - - - - - -
03/11:00am 25.0 N 4 5 - - 0.0 - - - - - - -
03/10:30am 23.7 N 4 5 - - 0.0 - - - - - - -
03/10:00am 23.0 N 4 5 - - 0.0 - - - - - - -
03/09:30am 22.0 N 5 6 - - 0.0 - - - - - - -
03/09:00am 21.2 N 4 5 - - 0.0 - - - - - - -
03/08:30am 20.6 NW 2 3 - - 0.0 - - - - - - -
03/08:00am 19.5 WNW 2 3 - - 0.0 - - - - - - -
03/07:30am 18.8 WNW 2 3 - - 0.0 - - - - - - -

Other Formats:

Comma delimited format used in spreadsheet applications
http://www.bom.gov.au/fwo/IDN60701/IDN60701.94774.axf

JavaScript Object Notation format (JSON) in row-major order
http://www.bom.gov.au/fwo/IDN60701/IDN60701.94774.json